Friday, January 18, 2019, 11:42 PM EST
Back to Local

KCDW, Caldwell Essex County Airport

Location: Fairfield, NJ, United States Lat: 40.883
Local Time: 11:42 PM EST ( 4:42 GMT) Lon: -74.283
Time Zone: US/Eastern Elev: 173 ft

Show me the last for .
Show Coded

Time T Td Feel RH Dir Speed Gust Alt SLP Vis Weather Sky Remarks
2019-01-18 22:53 34 25 29 69 330° 6 - 30.18 30.20 10 BKN040 None
2019-01-18 21:53 32 31 - 95 - Calm - 30.17 30.19 6 BR BKN034 OVC041 None
2019-01-18 20:53 31 29 - 92 - Calm - 30.14 30.16 5 BR BKN050 OVC055 None
2019-01-18 19:53 31 30 - 96 - Calm - 30.12 30.14 6 BR BKN032 BKN060 None
2019-01-18 18:53 32 31 - 95 - Calm - 30.11 30.13 6 BR CLR 6-hr Min Temp (7pm): 30.9°F
6-hr Max Temp (7pm): 36.0°F
2019-01-18 17:53 34 32 - 92 - Calm - 30.10 30.12 7 SCT048 None
2019-01-18 16:53 35 32 32 88 220° 3 - 30.07 30.09 7 OVC015 None
2019-01-18 15:53 35 32 32 88 250° 3 - 30.08 30.10 6 BR OVC012 None
2019-01-18 14:53 35 31 32 84 240° 3 - 30.04 30.06 6 BR OVC012 None
2019-01-18 14:12 35 31 - 84 - Calm - 30.05 - 5 BR OVC013 None
2019-01-18 13:53 35 31 - 84 - Calm - 30.05 30.07 4 BR OVC016 None
2019-01-18 12:53 33 31 - 91 - Calm - 30.07 30.09 4 BR OVC019 6-hr Precip Total (1pm): 0.00"
6-hr Min Temp (1pm): 26.1°F
6-hr Max Temp (1pm): 34.0°F
2019-01-18 12:43 33 30 - 88 - Calm - 30.07 - 4 BR FEW010 OVC019 None
2019-01-18 12:01 33 30 - 88 - Calm - 30.09 - 4 BR OVC010 None
2019-01-18 11:53 33 30 - 88 - Calm - 30.10 30.12 4 BR OVC010 None
2019-01-18 10:53 32 29 - 88 - Calm - 30.12 30.14 4 BR OVC009 None
2019-01-18 09:53 30 27 - 88 - Calm - 30.12 30.14 5 BR OVC008 1-hr Precip Total: Trace
6-hr Precip Total (10am): 0.00"
2019-01-18 09:06 28 26 24 92 30° 3 - 30.12 - 3 -SN BR OVC008 1-hr Precip Total: Trace
2019-01-18 08:53 28 26 - 92 - Calm - 30.12 30.14 2 -SN BR OVC008 1-hr Precip Total: Trace
2019-01-18 07:53 27 25 - 92 - Calm - 30.11 30.13 7 OVC008 None
2019-01-18 06:53 26 25 22 95 20° 3 - 30.12 30.14 8 OVC008 6-hr Precip Total (7am): 0.00"
6-hr Min Temp (7am): 25.0°F
6-hr Max Temp (7am): 26.1°F
2019-01-18 05:53 26 25 - 95 - Calm - 30.12 30.14 7 OVC009 None
2019-01-18 04:53 26 25 - 95 - Calm - 30.13 30.14 6 BR OVC014 1-hr Precip Total: Trace
2019-01-18 04:31 26 25 - 95 - Calm - 30.14 - 3 -SN BR OVC014 1-hr Precip Total: Trace
2019-01-18 04:06 26 24 22 92 40° 3 - 30.14 - 5 BR BKN015 BKN065 OVC080 None
2019-01-18 03:53 26 24 21 92 60° 5 - 30.15 30.17 6 BR FEW017 BKN038 OVC085 1-hr Precip Total: Trace
6-hr Precip Total (4am): 0.00"
2019-01-18 03:25 25 24 21 96 60° 3 - 30.16 - 3 -SN BR OVC038 1-hr Precip Total: Trace
2019-01-18 03:05 25 24 21 96 40° 3 - 30.17 - 2 -SN BR OVC032 1-hr Precip Total: Trace
2019-01-18 02:53 25 24 19 96 50° 5 - 30.18 30.20 1 -SN BR OVC028 1-hr Precip Total: Trace
2019-01-18 02:32 26 23 21 87 50° 5 - 30.19 - 1 -SN BR OVC038 1-hr Precip Total: Trace
2019-01-18 02:21 26 23 21 87 60° 5 - 30.19 - 3 -SN BR OVC046 1-hr Precip Total: Trace
2019-01-18 02:07 26 23 21 87 40° 5 - 30.20 - 2 -SN BR OVC046 1-hr Precip Total: Trace
2019-01-18 01:53 26 24 21 92 50° 5 - 30.20 30.22 3 -SN BR OVC050 1-hr Precip Total: Trace
2019-01-18 01:35 26 24 22 92 40° 3 - 30.20 - 4 -SN BR OVC046 1-hr Precip Total: Trace
2019-01-18 01:26 26 24 21 92 50° 5 - 30.20 - 2 -SN BR OVC042 1-hr Precip Total: Trace
2019-01-18 01:12 26 24 22 92 50° 3 - 30.21 - 1 -SN BR OVC036 1-hr Precip Total: Trace
2019-01-18 00:53 26 24 21 92 30° 5 - 30.22 30.24 2 -SN BR OVC040 1-hr Precip Total: Trace
6-hr Precip Total (1am): 0.00"
6-hr Min Temp (1am): 26.1°F
6-hr Max Temp (1am): 30.0°F
2019-01-18 00:40 27 23 23 84 20° 3 - 30.22 - 2 -SN BR OVC042 1-hr Precip Total: Trace
2019-01-18 00:23 27 23 22 84 40° 5 - 30.22 - 6 -SN BR OVC040 1-hr Precip Total: Trace
2019-01-17 23:53 28 23 - 81 - Calm - 30.24 30.26 2 -SN OVC032 1-hr Precip Total: Trace
24-hr Min Temp (12am): 21.9°F
24-hr Max Temp (12am): 30.9°F
2019-01-17 23:49 28 21 25 74 50° 3 - 30.24 - 3 -SN OVC032 1-hr Precip Total: Trace

Support USWX by starting your Amazon purchase here.